createdAt,value
2018-12-09T00:01:53.307Z,2.70
2018-12-09T00:04:22.014Z,2.90
2018-12-09T00:06:50.714Z,1.43
2018-12-09T00:09:19.402Z,4.33
2018-12-09T00:11:48.069Z,1.97
2018-12-09T00:14:16.749Z,3.63
2018-12-09T00:16:45.425Z,4.43
2018-12-09T00:19:14.099Z,3.33
2018-12-09T00:21:42.786Z,5.93
2018-12-09T00:24:11.494Z,2.97
2018-12-09T00:26:40.217Z,6.83
2018-12-09T00:29:08.536Z,3.67
2018-12-09T00:31:37.227Z,4.27
2018-12-09T00:34:05.928Z,3.23
2018-12-09T00:36:34.620Z,2.47
2018-12-09T00:39:03.648Z,1.90
2018-12-09T00:41:32.336Z,3.67
2018-12-09T00:44:00.989Z,5.67
2018-12-09T00:46:29.732Z,3.53
2018-12-09T00:48:58.425Z,4.63
2018-12-09T00:51:27.110Z,5.03
2018-12-09T00:53:55.777Z,4.67
2018-12-09T00:56:24.432Z,4.77
2018-12-09T00:58:53.128Z,4.27
2018-12-09T01:01:21.822Z,6.13
2018-12-09T01:03:50.499Z,6.87
2018-12-09T01:06:19.186Z,6.23
2018-12-09T01:08:47.993Z,5.17
2018-12-09T01:11:16.672Z,6.10
2018-12-09T01:13:45.391Z,4.83
2018-12-09T01:16:14.216Z,5.67
2018-12-09T01:18:42.541Z,8.47
2018-12-09T01:21:11.235Z,5.03
2018-12-09T01:23:39.949Z,6.27
2018-12-09T01:26:08.628Z,5.93
2018-12-09T01:28:37.319Z,8.23
2018-12-09T01:31:06.010Z,5.47
2018-12-09T01:33:34.726Z,5.40
2018-12-09T01:36:03.468Z,5.43
2018-12-09T01:41:22.578Z,6.37
2018-12-09T01:43:51.246Z,6.23
2018-12-09T01:46:19.927Z,4.43
2018-12-09T01:48:48.593Z,5.47
2018-12-09T01:51:17.264Z,8.93
2018-12-09T01:54:17.725Z,5.67
2018-12-09T01:56:46.527Z,4.97
2018-12-09T01:59:15.202Z,5.90
2018-12-09T02:01:44.002Z,8.63
2018-12-09T02:04:12.813Z,4.37
2018-12-09T02:06:41.495Z,9.07
2018-12-09T02:09:10.803Z,11.37
2018-12-09T02:11:39.476Z,7.90
2018-12-09T02:14:08.171Z,7.67
2018-12-09T02:16:36.872Z,10.00
2018-12-09T02:19:16.654Z,6.87
2018-12-09T02:21:45.753Z,7.63
2018-12-09T02:24:14.469Z,5.13
2018-12-09T02:26:43.137Z,6.07
2018-12-09T02:29:11.769Z,4.13
2018-12-09T02:31:40.389Z,5.80
2018-12-09T02:34:09.015Z,5.13
2018-12-09T02:36:38.004Z,5.27
2018-12-09T02:39:08.734Z,7.70
2018-12-09T02:41:37.551Z,9.23
2018-12-09T02:44:06.230Z,10.13
2018-12-09T02:46:35.612Z,9.37
2018-12-09T02:49:04.429Z,10.07
2018-12-09T02:51:33.335Z,10.10
2018-12-09T02:54:02.013Z,11.57
2018-12-09T02:56:30.654Z,10.97
2018-12-09T02:58:59.453Z,9.73
2018-12-09T03:01:28.140Z,15.63
2018-12-09T03:03:56.802Z,10.60
2018-12-09T03:06:25.453Z,10.87
2018-12-09T03:08:54.737Z,14.53
2018-12-09T03:11:23.475Z,17.07
2018-12-09T03:13:52.195Z,14.90
2018-12-09T03:16:20.832Z,10.20
2018-12-09T03:18:50.406Z,10.40
2018-12-09T03:21:19.093Z,20.77
2018-12-09T03:23:48.728Z,15.07
2018-12-09T03:33:23.738Z,16.87
2018-12-09T03:35:52.375Z,14.67
2018-12-09T03:38:21.180Z,15.27
2018-12-09T03:40:49.833Z,22.97
2018-12-09T03:43:18.495Z,18.07
2018-12-09T03:45:47.182Z,15.53
2018-12-09T03:48:16.014Z,17.33
2018-12-09T03:50:44.672Z,14.43
2018-12-09T03:53:13.320Z,12.60
2018-12-09T03:55:41.973Z,14.27
2018-12-09T03:58:10.613Z,13.13
2018-12-09T04:00:39.389Z,18.67
2018-12-09T04:03:08.013Z,14.00
2018-12-09T04:05:36.677Z,13.80
2018-12-09T04:08:05.980Z,15.63
2018-12-09T04:10:34.615Z,10.20
2018-12-09T04:13:03.269Z,12.70
2018-12-09T04:15:36.130Z,11.77
2018-12-09T04:18:04.737Z,13.93
2018-12-09T04:20:33.399Z,9.80
2018-12-09T04:23:02.027Z,16.47
2018-12-09T04:25:30.690Z,8.23
2018-12-09T04:27:59.302Z,10.00
2018-12-09T04:30:28.480Z,9.80
2018-12-09T04:32:57.275Z,10.17
2018-12-09T04:35:26.003Z,9.83
2018-12-09T04:37:54.668Z,9.00
2018-12-09T04:40:23.322Z,13.70
2018-12-09T04:42:51.985Z,8.43
2018-12-09T04:45:20.665Z,10.97
2018-12-09T04:47:49.345Z,8.80
2018-12-09T04:50:18.022Z,8.90
2018-12-09T04:52:47.308Z,10.07
2018-12-09T04:55:15.905Z,13.07
2018-12-09T04:57:44.538Z,10.00
2018-12-09T05:00:24.363Z,8.37
2018-12-09T05:02:53.251Z,7.80
2018-12-09T05:05:21.940Z,10.47
2018-12-09T05:07:50.654Z,7.23
2018-12-09T05:10:19.271Z,8.60
2018-12-09T05:12:48.423Z,9.13
2018-12-09T05:15:17.016Z,7.00
2018-12-09T05:17:45.747Z,6.53
2018-12-09T05:20:14.449Z,8.67
2018-12-09T05:22:43.128Z,11.63
2018-12-09T05:25:11.774Z,12.87
2018-12-09T05:27:40.414Z,10.67
2018-12-09T05:30:09.166Z,8.73
2018-12-09T05:32:37.802Z,9.50
2018-12-09T05:35:06.448Z,9.97
2018-12-09T05:37:35.360Z,16.00
2018-12-09T05:40:04.606Z,6.90
2018-12-09T05:42:33.271Z,13.60
2018-12-09T05:45:01.928Z,11.70
2018-12-09T05:47:30.654Z,7.90
2018-12-09T05:49:59.267Z,9.47
2018-12-09T05:52:27.866Z,10.80
2018-12-09T05:54:56.507Z,11.93
2018-12-09T05:57:25.171Z,6.23
2018-12-09T05:59:53.800Z,10.03
2018-12-09T06:02:33.438Z,8.40
2018-12-09T06:05:02.079Z,13.10
2018-12-09T06:07:30.734Z,9.07
2018-12-09T06:09:59.331Z,7.17
2018-12-09T06:12:28.051Z,14.17
2018-12-09T06:14:56.701Z,10.50
2018-12-09T06:17:25.365Z,15.17
2018-12-09T06:19:53.993Z,14.03
2018-12-09T06:22:23.352Z,18.27
2018-12-09T06:24:51.969Z,16.50
2018-12-09T06:27:20.635Z,12.40
2018-12-09T06:29:49.366Z,13.53
2018-12-09T06:32:18.005Z,9.20
2018-12-09T06:34:46.870Z,15.97
2018-12-09T06:37:15.530Z,13.07
2018-12-09T06:39:44.119Z,10.63
2018-12-09T06:42:12.738Z,11.47
2018-12-09T06:44:41.374Z,11.90
2018-12-09T06:47:09.996Z,11.93
2018-12-09T06:49:38.664Z,10.90
2018-12-09T06:52:07.334Z,19.60
2018-12-09T06:54:35.984Z,11.90
2018-12-09T06:57:04.645Z,14.07
2018-12-09T06:59:33.256Z,14.83
2018-12-09T07:02:01.866Z,15.67
2018-12-09T07:04:30.490Z,18.17
2018-12-09T07:06:59.165Z,15.93
2018-12-09T07:09:28.419Z,14.67
2018-12-09T07:11:57.053Z,13.00
2018-12-09T07:14:25.648Z,14.90
2018-12-09T07:16:54.245Z,9.23
2018-12-09T07:19:22.947Z,9.23
2018-12-09T07:21:51.600Z,10.87
2018-12-09T07:24:20.255Z,7.00
2018-12-09T07:26:48.888Z,11.43
2018-12-09T07:29:17.496Z,6.10
2018-12-09T07:31:46.141Z,5.30
2018-12-09T07:34:14.817Z,4.47
2018-12-09T07:36:49.945Z,4.33
2018-12-09T07:39:18.558Z,5.10
2018-12-09T07:41:47.167Z,1.13
2018-12-09T07:44:15.865Z,1.70
2018-12-09T07:46:44.638Z,5.17
2018-12-09T07:49:13.446Z,1.77
2018-12-09T07:51:42.235Z,2.83
2018-12-09T07:54:10.857Z,2.23
2018-12-09T07:56:39.497Z,3.03
2018-12-09T07:59:10.650Z,5.70
2018-12-09T08:01:39.797Z,5.87
2018-12-09T08:04:08.467Z,1.90
2018-12-09T08:06:37.100Z,1.27
2018-12-09T08:09:06.930Z,0.70
2018-12-09T08:11:35.539Z,2.40
2018-12-09T08:14:04.439Z,2.07
2018-12-09T08:16:33.101Z,2.17
2018-12-09T08:19:01.743Z,1.77
2018-12-09T08:21:30.411Z,1.20
2018-12-09T08:23:59.096Z,1.57
2018-12-09T08:26:27.833Z,1.70
2018-12-09T08:28:56.459Z,2.47
2018-12-09T08:31:25.075Z,2.23
2018-12-09T08:33:53.761Z,0.97
2018-12-09T08:36:22.414Z,2.00
2018-12-09T08:38:51.026Z,1.27
2018-12-09T08:41:19.695Z,2.20
2018-12-09T08:43:48.344Z,1.17
2018-12-09T08:46:16.967Z,1.20
2018-12-09T08:48:45.629Z,1.20
2018-12-09T08:51:14.319Z,1.40
2018-12-09T08:53:42.943Z,1.87
2018-12-09T08:56:11.663Z,3.10
2018-12-09T08:58:40.385Z,3.33
2018-12-09T09:01:09.140Z,2.80
2018-12-09T09:03:37.771Z,3.80
2018-12-09T09:06:06.414Z,6.93
2018-12-09T09:08:35.069Z,5.03
2018-12-09T09:11:03.703Z,6.07
2018-12-09T09:13:33.216Z,5.27
2018-12-09T09:16:02.022Z,1.60
2018-12-09T09:18:30.264Z,4.70
2018-12-09T09:21:03.137Z,3.03
2018-12-09T09:23:37.938Z,2.63
2018-12-09T09:26:06.543Z,6.90
2018-12-09T09:28:35.201Z,5.57
2018-12-09T09:31:03.835Z,8.67
2018-12-09T09:33:32.854Z,4.47
2018-12-09T09:36:04.457Z,4.33
2018-12-09T09:38:33.140Z,4.10
2018-12-09T09:41:01.841Z,5.53
2018-12-09T09:43:30.588Z,9.00
2018-12-09T09:46:01.159Z,7.93
2018-12-09T09:48:29.996Z,6.90
2018-12-09T09:50:59.791Z,8.73
2018-12-09T09:53:28.402Z,6.30
2018-12-09T09:56:00.086Z,7.03
2018-12-09T09:58:29.311Z,8.37
2018-12-09T10:00:57.910Z,4.80
2018-12-09T10:03:26.711Z,6.63
2018-12-09T10:05:55.334Z,8.00
2018-12-09T10:08:23.660Z,6.40
2018-12-09T10:10:52.297Z,6.23
2018-12-09T10:13:20.971Z,6.67
2018-12-09T10:15:52.835Z,5.40
2018-12-09T10:18:22.545Z,6.43
2018-12-09T10:20:51.190Z,6.57
2018-12-09T10:23:19.861Z,7.83
2018-12-09T10:25:48.486Z,6.37
2018-12-09T10:28:17.929Z,5.50
2018-12-09T10:30:46.586Z,6.30
2018-12-09T10:33:23.912Z,5.43
2018-12-09T10:35:52.752Z,9.40
2018-12-09T10:38:21.796Z,6.23
2018-12-09T10:40:51.344Z,6.87
2018-12-09T10:43:20.282Z,7.90
2018-12-09T10:45:48.916Z,9.03
2018-12-09T10:48:17.517Z,6.67
2018-12-09T10:50:46.314Z,6.43
2018-12-09T10:53:14.919Z,5.33
2018-12-09T10:55:43.557Z,6.77
2018-12-09T10:58:12.210Z,5.67
2018-12-09T11:00:46.194Z,8.60
2018-12-09T11:03:14.877Z,5.70
2018-12-09T11:05:43.468Z,8.70
2018-12-09T11:08:12.104Z,5.97
2018-12-09T11:10:40.735Z,4.73
2018-12-09T11:13:09.378Z,5.83
2018-12-09T11:15:38.015Z,7.93
2018-12-09T11:18:06.605Z,6.07
2018-12-09T11:20:35.229Z,6.27
2018-12-09T11:23:03.854Z,11.23
2018-12-09T11:25:32.473Z,8.07
2018-12-09T11:28:01.144Z,4.63
2018-12-09T11:30:29.790Z,7.23
2018-12-09T11:32:58.424Z,8.33
2018-12-09T11:35:27.119Z,9.77
2018-12-09T11:37:55.787Z,5.83
2018-12-09T11:40:24.459Z,5.03
2018-12-09T11:42:53.117Z,7.40
2018-12-09T11:45:21.778Z,7.70
2018-12-09T11:47:50.421Z,6.57
2018-12-09T11:50:19.109Z,3.77
2018-12-09T11:52:47.774Z,6.23
2018-12-09T11:55:16.405Z,5.73
2018-12-09T11:57:45.004Z,3.47
2018-12-09T12:00:14.501Z,6.60
2018-12-09T12:02:43.213Z,4.87
2018-12-09T12:05:11.826Z,8.73
2018-12-09T12:07:40.478Z,5.47
2018-12-09T12:10:09.179Z,3.63
2018-12-09T12:12:37.826Z,7.67
2018-12-09T12:15:06.811Z,8.67
2018-12-09T12:17:36.226Z,5.40
2018-12-09T12:20:05.057Z,5.87
2018-12-09T12:22:33.709Z,6.10
2018-12-09T12:25:02.326Z,7.77
2018-12-09T12:27:30.994Z,3.90
2018-12-09T12:29:59.633Z,3.30
2018-12-09T12:32:28.265Z,4.27
2018-12-09T12:34:56.934Z,6.03
2018-12-09T12:37:25.733Z,10.50
2018-12-09T12:39:54.350Z,6.27
2018-12-09T12:42:23.053Z,5.93
2018-12-09T12:44:51.882Z,6.33
2018-12-09T12:47:20.675Z,6.37
2018-12-09T12:49:49.554Z,5.67
2018-12-09T12:52:18.418Z,5.97
2018-12-09T12:54:46.701Z,7.17
2018-12-09T12:57:15.373Z,6.10
2018-12-09T12:59:43.995Z,4.10
2018-12-09T13:02:12.639Z,4.27
2018-12-09T13:04:41.341Z,7.23
2018-12-09T13:07:09.966Z,6.13
2018-12-09T13:09:38.618Z,10.37
2018-12-09T13:12:07.263Z,2.80
2018-12-09T13:14:35.894Z,7.40
2018-12-09T13:17:05.420Z,6.47
2018-12-09T13:19:34.398Z,6.13
2018-12-09T13:22:03.060Z,6.27
2018-12-09T13:24:32.058Z,6.70
2018-12-09T13:27:00.698Z,6.97
2018-12-09T13:29:29.316Z,4.40
2018-12-09T13:31:58.668Z,4.63
2018-12-09T13:34:27.331Z,6.17
2018-12-09T13:36:56.135Z,5.00
2018-12-09T13:39:24.781Z,6.47
2018-12-09T13:41:53.402Z,6.03
2018-12-09T13:44:22.018Z,13.73
2018-12-09T13:46:50.716Z,7.17
2018-12-09T13:49:19.426Z,8.87
2018-12-09T13:51:48.107Z,8.20
2018-12-09T13:54:16.838Z,6.10
2018-12-09T13:56:45.526Z,6.77
2018-12-09T13:59:14.187Z,6.97
2018-12-09T14:01:42.875Z,5.13
2018-12-09T14:04:11.525Z,6.23
2018-12-09T14:06:40.117Z,5.97
2018-12-09T14:09:08.910Z,5.07
2018-12-09T14:11:37.544Z,7.07
2018-12-09T14:14:06.202Z,3.57
2018-12-09T14:16:37.925Z,3.67
2018-12-09T14:19:06.722Z,4.87
2018-12-09T14:21:35.404Z,4.47
2018-12-09T14:24:04.174Z,3.43
2018-12-09T14:26:32.829Z,2.07
2018-12-09T14:29:01.904Z,4.73
2018-12-09T14:31:34.013Z,6.70
2018-12-09T14:34:02.848Z,6.07
2018-12-09T14:36:31.492Z,5.20
2018-12-09T14:39:00.098Z,5.53
2018-12-09T14:41:28.701Z,2.63
2018-12-09T14:43:57.338Z,6.07
2018-12-09T14:46:26.007Z,3.03
2018-12-09T14:48:54.598Z,2.93
2018-12-09T14:51:23.312Z,3.77
2018-12-09T14:54:06.274Z,3.23
2018-12-09T14:56:35.088Z,5.13
2018-12-09T14:59:03.773Z,4.40
2018-12-09T15:01:33.223Z,4.60
2018-12-09T15:04:01.939Z,2.60
2018-12-09T15:06:30.534Z,1.67
2018-12-09T15:08:58.937Z,1.30
2018-12-09T15:11:27.810Z,4.33
2018-12-09T15:13:56.431Z,10.30
2018-12-09T15:16:25.107Z,3.17
2018-12-09T15:18:53.753Z,7.17
2018-12-09T15:21:22.456Z,2.17
2018-12-09T15:23:51.102Z,5.47
2018-12-09T15:26:19.798Z,1.80
2018-12-09T15:28:48.456Z,5.90
2018-12-09T15:31:17.088Z,4.93
2018-12-09T15:33:45.729Z,4.33
2018-12-09T15:36:14.350Z,3.50
2018-12-09T15:38:42.989Z,4.50
2018-12-09T15:41:11.744Z,3.80
2018-12-09T15:43:40.403Z,4.17
2018-12-09T15:46:09.115Z,5.43
2018-12-09T15:48:37.823Z,4.50
2018-12-09T15:51:06.667Z,3.50
2018-12-09T15:53:35.318Z,3.83
2018-12-09T15:56:03.989Z,4.03
2018-12-09T15:58:32.609Z,5.00
2018-12-09T16:01:01.213Z,10.77
2018-12-09T16:03:29.875Z,8.67
2018-12-09T16:05:58.490Z,7.87
2018-12-09T16:08:27.252Z,5.33
2018-12-09T16:10:55.941Z,6.93
2018-12-09T16:13:24.587Z,6.00
2018-12-09T16:15:53.203Z,7.97
2018-12-09T16:18:21.899Z,5.73
2018-12-09T16:20:50.517Z,9.70
2018-12-09T16:23:19.237Z,8.30
2018-12-09T16:25:48.472Z,8.17
2018-12-09T16:28:16.743Z,8.97
2018-12-09T16:30:45.349Z,10.47
2018-12-09T16:33:14.029Z,8.70
2018-12-09T16:35:42.701Z,7.43
2018-12-09T16:38:11.332Z,9.97
2018-12-09T16:40:39.940Z,10.07
2018-12-09T16:43:08.575Z,8.20
2018-12-09T16:45:37.213Z,11.20
2018-12-09T16:48:05.847Z,11.90
2018-12-09T16:50:34.472Z,8.33
2018-12-09T16:53:02.813Z,11.77
2018-12-09T16:55:31.567Z,9.37
2018-12-09T16:58:00.178Z,7.27
2018-12-09T17:00:28.822Z,11.30
2018-12-09T17:02:57.470Z,8.57
2018-12-09T17:05:26.160Z,13.03
2018-12-09T17:07:54.817Z,14.67
2018-12-09T17:10:23.445Z,10.80
2018-12-09T17:12:52.109Z,14.97
2018-12-09T17:15:20.876Z,9.77
2018-12-09T17:17:49.529Z,8.63
2018-12-09T17:20:18.158Z,8.53
2018-12-09T17:22:46.776Z,10.07
2018-12-09T17:25:15.467Z,9.47
2018-12-09T17:27:44.111Z,7.80
2018-12-09T17:30:12.755Z,10.43
2018-12-09T17:32:41.434Z,8.17
2018-12-09T17:35:10.129Z,12.23
2018-12-09T17:37:38.804Z,10.27
2018-12-09T17:40:08.577Z,8.13
2018-12-09T17:42:37.236Z,7.23
2018-12-09T17:45:06.160Z,12.10
2018-12-09T17:47:34.787Z,10.67
2018-12-09T17:50:03.564Z,10.60
2018-12-09T17:52:32.203Z,5.60
2018-12-09T17:55:00.935Z,8.67
2018-12-09T17:57:29.634Z,6.77
2018-12-09T17:59:58.314Z,9.10
2018-12-09T18:02:26.956Z,11.10
2018-12-09T18:04:55.561Z,12.67
2018-12-09T18:07:24.271Z,11.67
2018-12-09T18:09:52.886Z,15.07
2018-12-09T18:12:21.270Z,11.73
2018-12-09T18:14:50.001Z,15.10
2018-12-09T18:17:18.604Z,12.13
2018-12-09T18:19:47.476Z,11.87
2018-12-09T18:22:16.111Z,15.50
2018-12-09T18:24:44.721Z,16.63
2018-12-09T18:27:13.316Z,18.80
2018-12-09T18:29:42.172Z,15.13
2018-12-09T18:32:10.864Z,11.23
2018-12-09T18:34:39.586Z,13.80
2018-12-09T18:37:08.185Z,13.93
2018-12-09T18:39:37.008Z,17.23
2018-12-09T18:42:05.673Z,15.23
2018-12-09T18:44:34.305Z,14.03
2018-12-09T18:47:03.401Z,11.30
2018-12-09T18:49:32.071Z,15.03
2018-12-09T18:52:00.726Z,10.00
2018-12-09T18:54:29.527Z,14.57
2018-12-09T18:56:58.161Z,13.30
2018-12-09T18:59:26.904Z,12.03
2018-12-09T19:01:55.518Z,14.23
2018-12-09T19:04:24.178Z,16.10
2018-12-09T19:06:52.944Z,13.13
2018-12-09T19:09:21.789Z,13.43
2018-12-09T19:11:50.442Z,15.87
2018-12-09T19:14:19.273Z,9.40
2018-12-09T19:16:47.906Z,15.23
2018-12-09T19:19:16.525Z,12.03
2018-12-09T19:21:45.183Z,12.43
2018-12-09T19:24:13.905Z,11.83
2018-12-09T19:26:42.547Z,10.13
2018-12-09T19:29:11.158Z,12.53
2018-12-09T19:31:39.838Z,8.93
2018-12-09T19:34:08.524Z,10.37
2018-12-09T19:36:37.546Z,10.73
2018-12-09T19:39:07.552Z,16.40
2018-12-09T19:41:36.276Z,9.53
2018-12-09T19:44:05.150Z,11.00
2018-12-09T19:46:33.942Z,13.67
2018-12-09T19:49:02.747Z,7.60
2018-12-09T19:51:31.590Z,14.33
2018-12-09T19:54:00.301Z,13.90
2018-12-09T19:56:28.946Z,12.50
2018-12-09T19:58:58.630Z,11.60
2018-12-09T20:01:27.328Z,18.23
2018-12-09T20:03:55.974Z,14.50
2018-12-09T20:06:24.717Z,14.87
2018-12-09T20:08:53.642Z,13.43
2018-12-09T20:11:22.322Z,11.90
2018-12-09T20:13:51.065Z,9.60
2018-12-09T20:16:19.697Z,11.47
2018-12-09T20:18:48.330Z,12.17
2018-12-09T20:21:17.550Z,10.53
2018-12-09T20:23:46.317Z,9.67
2018-12-09T20:26:15.101Z,12.03
2018-12-09T20:28:43.759Z,12.70
2018-12-09T20:31:12.425Z,10.23
2018-12-09T20:33:41.105Z,10.83
2018-12-09T20:36:09.743Z,15.00
2018-12-09T20:38:38.575Z,13.90
2018-12-09T20:41:07.221Z,14.60
2018-12-09T20:43:35.905Z,11.93
2018-12-09T20:46:04.805Z,9.63
2018-12-09T20:48:33.190Z,16.97
2018-12-09T20:51:02.032Z,10.97
2018-12-09T20:53:30.700Z,16.50
2018-12-09T20:55:59.386Z,12.90
2018-12-09T20:58:28.085Z,7.07
2018-12-09T21:00:56.743Z,17.03
2018-12-09T21:03:25.369Z,16.73
2018-12-09T21:05:54.025Z,8.37
2018-12-09T21:08:22.716Z,9.50
2018-12-09T21:10:51.338Z,11.73
2018-12-09T21:13:19.980Z,11.80
2018-12-09T21:15:48.637Z,18.27
2018-12-09T21:18:17.254Z,17.50
2018-12-09T21:20:46.031Z,12.17
2018-12-09T21:23:14.725Z,14.20
2018-12-09T21:25:43.356Z,17.83
2018-12-09T21:28:11.984Z,12.97
2018-12-09T21:30:40.670Z,13.73
2018-12-09T21:33:09.334Z,10.97
2018-12-09T21:35:38.182Z,13.80
2018-12-09T21:38:06.826Z,12.77
2018-12-09T21:40:35.408Z,11.27
2018-12-09T21:43:04.032Z,9.90
2018-12-09T21:45:32.649Z,10.87
2018-12-09T21:48:01.610Z,7.43
2018-12-09T21:50:30.310Z,6.50
2018-12-09T21:52:59.048Z,13.20
2018-12-09T21:55:27.730Z,9.40
2018-12-09T21:57:56.354Z,9.30
2018-12-09T22:00:25.013Z,11.00
2018-12-09T22:02:53.742Z,9.97
2018-12-09T22:05:22.371Z,11.23
2018-12-09T22:07:51.008Z,11.03
2018-12-09T22:10:19.694Z,12.20
2018-12-09T22:12:48.318Z,8.20
2018-12-09T22:15:17.273Z,14.00
2018-12-09T22:17:45.913Z,11.70
2018-12-09T22:20:14.522Z,17.30
2018-12-09T22:22:43.118Z,11.17
2018-12-09T22:25:11.752Z,12.43
2018-12-09T22:27:40.461Z,7.70
2018-12-09T22:30:09.102Z,10.10
2018-12-09T22:32:37.411Z,11.73
2018-12-09T22:35:06.585Z,12.90
2018-12-09T22:37:35.218Z,10.60
2018-12-09T22:40:04.118Z,10.83
2018-12-09T22:42:32.757Z,7.30
2018-12-09T22:45:01.654Z,13.27
2018-12-09T22:47:30.906Z,14.43
2018-12-09T22:49:59.539Z,8.83
2018-12-09T22:52:28.203Z,9.57
2018-12-09T22:54:56.872Z,8.63
2018-12-09T22:57:25.562Z,7.93
2018-12-09T22:59:54.202Z,11.80
2018-12-09T23:02:28.174Z,9.27
2018-12-09T23:04:57.154Z,9.93
2018-12-09T23:07:30.889Z,7.97
2018-12-09T23:09:59.522Z,7.93
2018-12-09T23:12:28.156Z,12.67
2018-12-09T23:14:56.840Z,10.63
2018-12-09T23:17:25.488Z,14.97
2018-12-09T23:19:54.122Z,11.30
2018-12-09T23:22:22.783Z,9.30
2018-12-09T23:24:51.677Z,7.10
2018-12-09T23:27:20.365Z,10.67
2018-12-09T23:29:49.061Z,9.60
2018-12-09T23:32:17.769Z,8.87
2018-12-09T23:34:46.376Z,7.83
2018-12-09T23:37:15.137Z,9.53
2018-12-09T23:39:43.419Z,9.97
2018-12-09T23:42:12.088Z,12.27
2018-12-09T23:44:40.884Z,10.77
2018-12-09T23:47:09.545Z,9.77
2018-12-09T23:49:38.430Z,10.80
2018-12-09T23:52:07.038Z,7.00
2018-12-09T23:54:35.675Z,7.27
2018-12-09T23:57:04.349Z,10.20
2018-12-09T23:59:32.982Z,14.67
